Time;durP1;ratioP1;P1;durP2;ratioP2;P2;SDS_P1;SDS_P2;PMS_P1;PMS_P2;Temp;Humidity;BMP_temperature;BMP_pressure;BME280_temperature;BME280_humidity;BME280_pressure;Samples;Min_cycle;Max_cycle;Signal;HPM_P1;HPM_P2
2022/10/29 00:00:39;;;;;;;16.30;2.97;;;;;;;17.53;100.00;100623.66;6220080;23;20533;-94
2022/10/29 00:03:05;;;;;;;19.67;3.60;;;;;;;17.41;100.00;100607.88;6220665;23;20079;-96
2022/10/29 00:05:31;;;;;;;15.27;2.33;;;;;;;17.53;100.00;100605.06;6219902;23;20012;-95
2022/10/29 00:07:57;;;;;;;19.30;2.90;;;;;;;17.49;100.00;100603.69;6220279;23;20004;-96
2022/10/29 00:10:22;;;;;;;12.30;2.25;;;;;;;17.56;100.00;100605.63;6220623;23;20450;-95
2022/10/29 00:12:48;;;;;;;17.92;2.92;;;;;;;17.44;100.00;100591.69;6220122;23;20099;-95
2022/10/29 00:15:14;;;;;;;17.98;3.88;;;;;;;17.43;100.00;100578.56;6219947;23;20031;-95
2022/10/29 00:17:39;;;;;;;18.80;2.38;;;;;;;17.33;100.00;100589.19;6220153;23;20012;-94
2022/10/29 00:20:06;;;;;;;12.50;2.45;;;;;;;17.60;100.00;100579.63;6219142;23;20419;-95
2022/10/29 00:22:32;;;;;;;13.15;2.55;;;;;;;17.55;100.00;100565.94;6218982;23;20007;-96
2022/10/29 00:24:57;;;;;;;20.95;4.70;;;;;;;17.20;100.00;100562.13;6220217;23;20008;-96
2022/10/29 00:27:23;;;;;;;13.05;2.22;;;;;;;17.66;100.00;100564.94;6220324;23;20004;-96
2022/10/29 00:29:49;;;;;;;18.00;3.83;;;;;;;17.14;100.00;100558.25;6220234;23;20000;-95
2022/10/29 00:32:14;;;;;;;21.10;3.10;;;;;;;17.29;100.00;100553.31;6219761;23;20012;-95
2022/10/29 00:34:40;;;;;;;16.17;3.47;;;;;;;17.10;100.00;100550.72;6219848;23;20000;-96
2022/10/29 00:37:06;;;;;;;15.85;2.53;;;;;;;17.08;100.00;100544.72;6219675;23;20012;-95
2022/10/29 00:39:34;;;;;;;18.75;2.53;;;;;;;17.31;100.00;100526.63;6220237;23;20000;-96
2022/10/29 00:42:00;;;;;;;26.48;3.65;;;;;;;17.03;100.00;100531.88;6220085;23;20088;-95
2022/10/29 00:44:37;;;;;;;15.30;2.90;;;;;;;17.82;100.00;100549.19;6219695;23;20000;-94
2022/10/29 00:47:24;;;;;;;29.25;3.63;;;;;;;17.43;100.00;100557.31;6219400;23;20000;-95
2022/10/29 00:49:55;;;;;;;20.20;2.65;;;;;;;16.98;100.00;100553.53;6219330;23;20000;-96
2022/10/29 00:52:24;;;;;;;24.42;3.10;;;;;;;17.28;100.00;100554.31;6219374;23;20303;-96
2022/10/29 00:54:52;;;;;;;15.73;2.40;;;;;;;17.39;100.00;100551.47;6219480;23;20004;-95
2022/10/29 00:57:29;;;;;;;13.52;2.50;;;;;;;17.82;100.00;100554.50;6218798;23;20438;-96
2022/10/29 00:59:54;;;;;;;20.88;4.43;;;;;;;17.22;100.00;100561.03;6219185;23;20082;-94
2022/10/29 01:02:21;;;;;;;22.52;2.75;;;;;;;17.82;100.00;100547.38;6219119;23;20007;-94
2022/10/29 01:04:48;;;;;;;18.20;2.90;;;;;;;17.23;100.00;100544.09;6219416;23;20000;-94
2022/10/29 01:07:13;;;;;;;19.52;3.83;;;;;;;16.79;100.00;100535.81;6219285;23;19996;-96
2022/10/29 01:09:39;;;;;;;21.70;3.95;;;;;;;17.31;100.00;100537.25;6220428;23;20004;-95
2022/10/29 01:12:26;;;;;;;21.05;3.15;;;;;;;17.33;100.00;100545.91;6220015;23;20004;-94
2022/10/29 01:15:16;;;;;;;23.58;3.47;;;;;;;17.25;100.00;100534.19;6219981;23;20012;-95
2022/10/29 01:18:08;;;;;;;17.77;3.20;;;;;;;17.49;100.00;100527.53;6220344;23;20012;-94
2022/10/29 01:21:00;;;;;;;11.30;3.03;;;;;;;17.76;100.00;100517.94;6246045;23;20004;-95
2022/10/29 01:23:53;;;;;;;18.63;3.13;;;;;;;17.40;100.00;100520.47;6189269;23;20014;-94
2022/10/29 01:27:13;;;;;;;15.05;3.10;;;;;;;17.63;100.00;100518.25;6219196;23;20031;-95
2022/10/29 01:30:28;;;;;;;16.52;3.08;;;;;;;17.95;100.00;100509.88;6152906;23;20010;-94
2022/10/29 01:33:03;;;;;;;16.05;3.15;;;;;;;17.52;100.00;100494.56;6145479;23;20065;-94
2022/10/29 01:35:33;;;;;;;17.25;3.78;;;;;;;17.39;100.00;100493.06;6220328;23;20673;-95
2022/10/29 01:38:17;;;;;;;17.05;3.15;;;;;;;18.01;100.00;100489.84;6219819;23;20012;-95
2022/10/29 01:41:00;;;;;;;20.33;4.10;;;;;;;17.83;100.00;100485.34;6219517;23;20000;-95
2022/10/29 01:43:40;;;;;;;18.00;3.65;;;;;;;17.67;100.00;100489.59;6219697;23;20008;-94
2022/10/29 01:46:16;;;;;;;14.50;3.55;;;;;;;18.04;100.00;100492.19;6219852;23;20667;-96
2022/10/29 01:48:46;;;;;;;17.00;3.72;;;;;;;18.19;100.00;100488.03;6219287;23;20008;-94
2022/10/29 01:51:19;;;;;;;19.55;3.28;;;;;;;18.21;100.00;100483.38;6219493;23;20008;-95
2022/10/29 01:53:45;;;;;;;18.42;3.97;;;;;;;17.49;100.00;100468.31;6219367;23;20064;-94
2022/10/29 01:56:10;;;;;;;17.48;4.43;;;;;;;17.44;100.00;100443.03;6219297;23;20335;-95
2022/10/29 01:58:37;;;;;;;15.20;3.88;;;;;;;17.84;100.00;100443.69;6218983;23;20042;-95
2022/10/29 02:01:05;;;;;;;17.15;3.28;;;;;;;17.80;100.00;100447.59;6219056;23;20371;-94
2022/10/29 02:03:56;;;;;;;21.20;4.38;;;;;;;17.91;100.00;100438.59;6218532;23;20008;-94
2022/10/29 02:06:30;;;;;;;20.65;4.07;;;;;;;17.18;100.00;100424.31;6219339;23;20333;-95
2022/10/29 02:09:17;;;;;;;20.52;4.80;;;;;;;17.03;100.00;100405.38;6219182;23;20000;-96
2022/10/29 02:11:51;;;;;;;24.83;5.32;;;;;;;16.80;100.00;100412.00;6220581;23;20011;-95
2022/10/29 02:14:26;;;;;;;18.92;4.75;;;;;;;16.89;100.00;100400.56;6220889;23;20011;-94
2022/10/29 02:16:55;;;;;;;22.33;5.35;;;;;;;17.01;100.00;100372.88;6220351;23;20012;-94
2022/10/29 02:19:20;;;;;;;22.67;6.18;;;;;;;17.03;100.00;100362.94;6220077;23;20082;-93
2022/10/29 02:21:46;;;;;;;24.45;6.05;;;;;;;16.92;100.00;100363.13;6245587;23;20446;-94
2022/10/29 02:24:11;;;;;;;33.17;6.15;;;;;;;16.72;100.00;100353.56;6221032;23;20393;-96
2022/10/29 02:26:37;;;;;;;18.05;5.70;;;;;;;16.61;100.00;100355.41;6221055;23;20000;-96
2022/10/29 02:29:02;;;;;;;24.25;6.18;;;;;;;16.40;100.00;100358.25;6220743;23;20499;-95
2022/10/29 02:31:28;;;;;;;22.25;5.65;;;;;;;17.14;100.00;100361.06;6220303;23;20004;-95
2022/10/29 02:33:53;;;;;;;19.73;6.00;;;;;;;17.26;100.00;100359.91;6219948;23;20011;-94
2022/10/29 02:36:19;;;;;;;24.23;6.53;;;;;;;16.28;100.00;100367.34;6219883;23;20030;-94
2022/10/29 02:38:44;;;;;;;23.17;5.55;;;;;;;16.90;100.00;100375.69;6220621;23;20023;-95
2022/10/29 02:41:10;;;;;;;19.65;5.75;;;;;;;17.19;100.00;100364.13;6220351;23;20058;-94
2022/10/29 02:43:35;;;;;;;17.98;5.70;;;;;;;16.90;100.00;100358.97;6220635;23;20000;-95
2022/10/29 02:46:16;;;;;;;17.45;6.13;;;;;;;17.35;100.00;100348.38;6220277;23;20004;-94
2022/10/29 02:48:42;;;;;;;37.30;9.00;;;;;;;17.25;100.00;100331.69;6220463;23;20062;-94
2022/10/29 02:51:08;;;;;;;16.45;6.28;;;;;;;17.24;100.00;100325.56;6220029;23;20087;-95
2022/10/29 02:53:33;;;;;;;18.23;6.32;;;;;;;17.72;100.00;100314.72;6220231;23;20031;-95
2022/10/29 02:55:59;;;;;;;17.80;5.30;;;;;;;17.07;100.00;100312.25;6220637;23;20000;-95
2022/10/29 02:58:24;;;;;;;17.23;6.43;;;;;;;17.29;100.00;100295.91;6220024;23;20004;-94
2022/10/29 03:00:50;;;;;;;21.15;7.28;;;;;;;17.05;100.00;100278.75;6220511;23;20087;-95
2022/10/29 03:03:16;;;;;;;15.68;6.55;;;;;;;17.12;100.00;100272.84;6220394;23;20035;-94
2022/10/29 03:05:41;;;;;;;13.95;6.07;;;;;;;17.16;100.00;100277.72;6220044;23;19999;-95
2022/10/29 03:08:07;;;;;;;17.67;5.82;;;;;;;17.04;100.00;100277.09;6220404;23;20312;-95
2022/10/29 03:10:32;;;;;;;19.88;6.63;;;;;;;17.30;100.00;100281.66;6220584;23;20008;-94
2022/10/29 03:12:58;;;;;;;20.15;6.53;;;;;;;16.92;100.00;100280.09;6245444;23;19996;-96
2022/10/29 03:15:24;;;;;;;16.13;6.95;;;;;;;17.35;100.00;100276.72;6220251;23;20422;-94
2022/10/29 03:17:49;;;;;;;14.63;6.57;;;;;;;17.89;100.00;100271.41;6219914;23;20007;-93
2022/10/29 03:20:15;;;;;;;10.77;5.57;;;;;;;18.36;100.00;100264.88;6219580;23;20008;-95
2022/10/29 03:22:40;;;;;;;12.27;5.82;;;;;;;17.76;100.00;100263.81;6219890;23;20003;-94
2022/10/29 03:25:06;;;;;;;22.98;7.45;;;;;;;17.36;100.00;100264.31;6246261;23;20000;-95
2022/10/29 03:27:31;;;;;;;14.45;6.95;;;;;;;17.54;100.00;100251.84;6220739;23;20004;-95
2022/10/29 03:29:57;;;;;;;12.40;7.13;;;;;;;17.50;100.00;100244.38;6220883;23;20004;-95
2022/10/29 03:32:23;;;;;;;16.27;7.32;;;;;;;17.94;100.00;100241.72;6221113;23;20278;-95
2022/10/29 03:34:49;;;;;;;18.38;8.52;;;;;;;17.98;100.00;100243.91;6221341;23;20004;-95
2022/10/29 03:37:14;;;;;;;37.45;7.82;;;;;;;17.71;100.00;100236.88;6220460;23;20083;-96
2022/10/29 03:39:42;;;;;;;20.90;7.63;;;;;;;17.59;100.00;100240.78;6222603;23;20008;-96
2022/10/29 03:42:08;;;;;;;19.45;8.27;;;;;;;16.74;100.00;100221.69;6235361;22;19994;-95
2022/10/29 03:44:34;;;;;;;19.05;9.95;;;;;;;16.92;100.00;100219.91;6261554;23;20334;-96
2022/10/29 03:46:59;;;;;;;16.73;7.95;;;;;;;17.41;100.00;100207.13;6225043;23;20004;-96
2022/10/29 03:49:25;;;;;;;10.40;6.32;;;;;;;17.69;100.00;100201.69;6223314;23;20008;-96
2022/10/29 03:51:50;;;;;;;9.70;6.03;;;;;;;18.08;100.00;100189.84;6222435;23;20004;-96
2022/10/29 03:54:16;;;;;;;11.20;5.70;;;;;;;17.91;100.00;100183.59;6222263;23;20431;-96
2022/10/29 03:56:42;;;;;;;11.13;6.03;;;;;;;18.21;100.00;100168.97;6222509;23;20023;-95
2022/10/29 03:59:07;;;;;;;11.77;6.20;;;;;;;18.21;100.00;100167.16;6223956;23;20028;-95
2022/10/29 04:01:33;;;;;;;10.27;6.05;;;;;;;17.58;100.00;100152.34;6222624;23;20004;-96
2022/10/29 04:03:58;;;;;;;12.98;5.70;;;;;;;17.53;100.00;100154.63;6224518;23;20075;-95
2022/10/29 04:06:24;;;;;;;12.20;6.18;;;;;;;17.57;100.00;100144.53;6224342;23;20074;-96
2022/10/29 04:08:50;;;;;;;9.77;6.15;;;;;;;18.01;100.00;100140.00;6225028;23;20012;-96
2022/10/29 04:11:15;;;;;;;17.02;6.80;;;;;;;17.26;100.00;100139.69;6223046;23;20004;-96
2022/10/29 04:13:41;;;;;;;13.30;6.18;;;;;;;17.85;100.00;100142.56;6222968;23;20051;-96
2022/10/29 04:16:07;;;;;;;14.45;5.38;;;;;;;18.26;100.00;100147.22;6223147;23;20035;-95
2022/10/29 04:18:33;;;;;;;12.93;4.78;;;;;;;18.35;100.00;100154.25;6224278;23;20062;-95
2022/10/29 04:21:00;;;;;;;10.13;4.55;;;;;;;18.61;100.00;100149.66;6232753;23;20004;-96
2022/10/29 04:23:26;;;;;;;6.95;3.60;;;;;;;18.57;100.00;100143.00;6230526;23;20058;-95
2022/10/29 04:25:58;;;;;;;17.65;4.07;;;;;;;18.60;100.00;100126.75;6236920;23;20019;-96
2022/10/29 04:28:25;;;;;;;14.38;3.92;;;;;;;18.46;100.00;100130.00;6240935;23;20004;-95
2022/10/29 04:30:55;;;;;;;14.35;3.45;;;;;;;18.16;100.00;100110.97;6235836;23;20424;-96
2022/10/29 04:33:21;;;;;;;8.35;3.10;;;;;;;17.98;100.00;100113.75;6236916;23;20011;-96
2022/10/29 04:35:53;;;;;;;7.65;2.75;;;;;;;18.28;100.00;100105.38;6237401;23;20008;-95
2022/10/29 04:38:21;;;;;;;13.32;3.65;;;;;;;18.10;100.00;100105.50;6241170;23;20084;-96
2022/10/29 04:40:48;;;;;;;12.48;3.67;;;;;;;18.26;100.00;100113.50;6238700;23;20000;-96
2022/10/29 04:43:14;;;;;;;12.73;5.22;;;;;;;18.36;100.00;100116.03;6232077;23;20016;-95
2022/10/29 04:45:39;;;;;;;14.48;4.38;;;;;;;18.11;100.00;100121.28;6225942;23;20138;-95
2022/10/29 04:48:06;;;;;;;11.40;3.67;;;;;;;18.33;100.00;100119.03;6223940;23;19996;-95
2022/10/29 04:50:33;;;;;;;10.63;3.50;;;;;;;18.61;100.00;100122.25;6223855;23;20015;-95
2022/10/29 04:53:04;;;;;;;17.27;4.40;;;;;;;18.31;100.00;100111.22;6222135;23;20004;-96
2022/10/29 04:55:30;;;;;;;8.70;3.78;;;;;;;18.56;100.00;100113.91;6224210;23;20001;-96
2022/10/29 04:57:56;;;;;;;9.45;3.35;;;;;;;18.54;100.00;100114.09;6222186;23;20000;-95
2022/10/29 05:00:22;;;;;;;13.45;3.70;;;;;;;18.10;100.00;100108.16;6220961;23;20011;-96
2022/10/29 05:02:49;;;;;;;8.52;2.95;;;;;;;18.14;100.00;100110.31;6227251;23;20134;-96
2022/10/29 05:05:16;;;;;;;16.02;4.07;;;;;;;18.02;100.00;100107.13;6228557;23;20083;-96
2022/10/29 05:07:45;;;;;;;9.13;4.07;;;;;;;18.77;100.00;100105.47;6226033;23;20388;-96
2022/10/29 05:10:12;;;;;;;14.18;4.88;;;;;;;18.48;100.00;100122.69;6228651;23;20043;-95
2022/10/29 05:12:37;;;;;;;15.25;4.32;;;;;;;18.40;100.00;100106.75;6222547;23;20102;-96
2022/10/29 05:15:04;;;;;;;16.15;5.45;;;;;;;18.75;100.00;100102.97;6222454;23;20019;-95
2022/10/29 05:17:29;;;;;;;13.00;5.07;;;;;;;18.06;100.00;100083.72;6222030;23;20027;-96
2022/10/29 05:19:55;;;;;;;11.38;5.50;;;;;;;18.30;100.00;100082.97;6222751;23;20087;-95
2022/10/29 05:22:20;;;;;;;12.13;5.30;;;;;;;18.60;100.00;100100.16;6220529;23;20007;-96
2022/10/29 05:24:46;;;;;;;24.25;7.50;;;;;;;18.40;100.00;100088.13;6221678;23;20008;-96
2022/10/29 05:27:12;;;;;;;15.43;6.05;;;;;;;18.83;100.00;100084.41;6222607;23;20082;-95
2022/10/29 05:29:37;;;;;;;16.90;6.28;;;;;;;18.60;100.00;100083.34;6228014;23;20028;-96
2022/10/29 05:32:03;;;;;;;13.65;7.10;;;;;;;18.53;100.00;100056.59;6224861;23;20008;-96
2022/10/29 05:34:29;;;;;;;21.73;8.60;;;;;;;18.42;100.00;100065.72;6224848;23;20004;-96
2022/10/29 05:36:54;;;;;;;20.75;9.32;;;;;;;18.37;100.00;100081.31;6221051;23;20004;-95
2022/10/29 05:39:20;;;;;;;20.85;9.65;;;;;;;18.66;100.00;100060.59;6221178;23;20004;-95
2022/10/29 05:41:46;;;;;;;16.88;9.07;;;;;;;18.80;100.00;100068.78;6221021;23;20046;-95
2022/10/29 05:44:12;;;;;;;20.50;9.40;;;;;;;18.71;100.00;100066.25;6224996;23;20015;-96
2022/10/29 05:46:37;;;;;;;25.95;9.90;;;;;;;18.87;100.00;100070.78;6227364;23;20004;-96
2022/10/29 05:49:05;;;;;;;32.90;11.50;;;;;;;18.20;100.00;100072.47;6235422;23;20008;-96
2022/10/29 05:51:31;;;;;;;21.55;10.15;;;;;;;19.13;100.00;100073.25;6233068;23;20004;-96
2022/10/29 05:53:56;;;;;;;22.30;10.50;;;;;;;19.00;100.00;100074.59;6227116;23;20004;-96
2022/10/29 05:56:22;;;;;;;24.05;11.55;;;;;;;18.87;100.00;100068.13;6222769;23;20061;-95
2022/10/29 05:58:54;;;;;;;17.95;11.27;;;;;;;18.86;100.00;100071.75;6219642;23;20493;-96
2022/10/29 06:01:22;;;;;;;26.75;11.55;;;;;;;19.05;100.00;100073.25;6229951;23;19996;-96
2022/10/29 06:03:50;;;;;;;19.07;10.07;;;;;;;19.26;100.00;100075.41;6208389;23;20012;-94
2022/10/29 06:06:21;;;;;;;29.58;11.90;;;;;;;19.21;100.00;100063.44;6235680;23;20118;-96
2022/10/29 06:08:48;;;;;;;23.75;11.57;;;;;;;19.07;100.00;100079.25;6233807;23;20034;-96
2022/10/29 06:13:43;;;;;;;26.85;12.18;;;;;;;19.32;100.00;100067.56;6246499;22;20027;-96
2022/10/29 06:16:20;;;;;;;26.13;12.07;;;;;;;19.61;100.00;100068.84;6258546;23;20000;-95
2022/10/29 06:19:06;;;;;;;19.30;10.93;;;;;;;19.44;100.00;100052.06;6235341;23;20004;-96
2022/10/29 06:21:31;;;;;;;26.88;11.43;;;;;;;19.28;100.00;100047.63;6233682;23;20326;-96
2022/10/29 06:23:57;;;;;;;24.42;11.63;;;;;;;19.14;100.00;100041.16;6229504;23;20008;-96
2022/10/29 06:26:24;;;;;;;30.77;11.95;;;;;;;19.42;100.00;100038.94;6237899;23;20008;-96
2022/10/29 06:29:04;;;;;;;21.55;9.65;;;;;;;19.51;100.00;100028.25;6243957;23;20011;-96
2022/10/29 06:31:32;;;;;;;23.27;10.02;;;;;;;19.58;100.00;100034.56;6236353;23;20004;-96
2022/10/29 06:33:58;;;;;;;21.35;10.40;;;;;;;19.53;100.00;100028.91;6270661;22;19985;-96
2022/10/29 06:39:22;;;;;;;24.75;9.30;;;;;;;19.52;100.00;100011.28;6263855;22;20016;-96
2022/10/29 06:41:47;;;;;;;31.45;9.85;;;;;;;19.28;100.00;100012.19;6243467;23;20011;-96
2022/10/29 06:44:13;;;;;;;23.42;8.80;;;;;;;19.80;100.00;100020.50;6237331;23;20016;-96
2022/10/29 06:46:40;;;;;;;20.02;9.55;;;;;;;19.56;100.00;100020.59;6238471;23;20005;-96
2022/10/29 06:49:49;;;;;;;23.02;9.38;;;;;;;19.70;100.00;100027.84;6236172;23;20499;-96
2022/10/29 06:55:04;;;;;;;27.50;10.20;;;;;;;19.73;100.00;100026.72;6255303;22;20127;-96
2022/10/29 06:57:29;;;;;;;23.35;9.30;;;;;;;19.71;100.00;100028.69;6227938;23;20018;-95
2022/10/29 06:59:55;;;;;;;21.48;9.55;;;;;;;19.97;100.00;100031.09;6252197;23;20027;-95
2022/10/29 07:02:22;;;;;;;26.27;8.65;;;;;;;19.96;100.00;100038.28;6227219;23;20285;-95
2022/10/29 07:04:48;;;;;;;25.90;8.70;;;;;;;19.93;100.00;100032.44;6180360;23;20011;-96
2022/10/29 07:07:15;;;;;;;19.90;7.70;;;;;;;19.93;100.00;100016.47;6227271;23;20244;-95
2022/10/29 07:09:41;;;;;;;27.25;9.18;;;;;;;19.96;100.00;100034.75;6221798;23;20007;-95
2022/10/29 07:12:08;;;;;;;28.45;8.38;;;;;;;19.79;100.00;100013.53;6222215;23;20000;-95
2022/10/29 07:14:33;;;;;;;20.75;7.35;;;;;;;19.79;100.00;100016.19;6225426;23;20091;-95
2022/10/29 07:16:59;;;;;;;21.48;7.53;;;;;;;19.96;100.00;100026.75;6222173;23;20370;-96
2022/10/29 07:19:25;;;;;;;21.88;7.60;;;;;;;20.12;100.00;100037.34;6225548;23;20007;-96
2022/10/29 07:21:50;;;;;;;24.48;7.30;;;;;;;20.02;100.00;100031.38;6220719;23;20007;-96
2022/10/29 07:24:18;;;;;;;17.17;6.78;;;;;;;19.99;100.00;100019.25;6222974;23;20015;-96
2022/10/29 07:26:44;;;;;;;15.95;5.97;;;;;;;20.17;100.00;100026.16;6223135;23;20007;-96
2022/10/29 07:29:10;;;;;;;18.90;7.50;;;;;;;20.14;100.00;100032.66;6226162;23;20000;-96
2022/10/29 07:31:35;;;;;;;20.45;6.50;;;;;;;20.28;100.00;100020.41;6225222;22;20020;-94
2022/10/29 07:34:01;;;;;;;19.80;6.68;;;;;;;20.29;100.00;100029.25;6193246;23;20004;-96
2022/10/29 07:36:29;;;;;;;13.65;6.32;;;;;;;20.20;100.00;100013.31;6190709;23;20032;-95
2022/10/29 07:38:55;;;;;;;18.25;6.07;;;;;;;20.12;100.00;100032.03;6191801;23;20706;-95
2022/10/29 07:41:21;;;;;;;14.73;5.05;;;;;;;20.36;100.00;100033.69;6196934;23;20020;-96
2022/10/29 07:43:46;;;;;;;22.40;7.53;;;;;;;20.01;100.00;100029.75;6194013;23;20008;-96
2022/10/29 07:46:12;;;;;;;13.70;5.63;;;;;;;20.37;100.00;100035.34;6191233;23;20032;-96
2022/10/29 07:48:38;;;;;;;19.15;6.20;;;;;;;20.34;100.00;100042.84;6189271;23;20016;-96
2022/10/29 07:51:03;;;;;;;15.18;5.15;;;;;;;20.25;100.00;100035.94;6189360;23;20470;-96
2022/10/29 07:53:32;;;;;;;14.10;5.10;;;;;;;20.54;100.00;100035.25;6189236;23;20080;-94
2022/10/29 07:55:58;;;;;;;23.50;5.93;;;;;;;20.53;100.00;100045.06;6188533;23;20005;-94
2022/10/29 07:58:24;;;;;;;16.30;5.07;;;;;;;20.58;100.00;100042.69;6189115;23;20051;-94
2022/10/29 08:00:50;;;;;;;18.27;5.75;;;;;;;20.74;100.00;100040.94;6188149;23;20009;-94
2022/10/29 08:03:15;;;;;;;17.48;5.25;;;;;;;20.98;100.00;100024.72;6189133;23;20309;-95
2022/10/29 08:05:41;;;;;;;18.85;5.82;;;;;;;20.99;100.00;100023.72;6189591;23;20564;-95
2022/10/29 08:08:07;;;;;;;16.38;5.22;;;;;;;20.69;100.00;100017.47;6189402;23;20513;-95
2022/10/29 08:10:34;;;;;;;18.00;5.65;;;;;;;20.66;100.00;100019.69;6192156;23;20000;-95
2022/10/29 08:13:01;;;;;;;14.88;4.50;;;;;;;21.02;100.00;100027.84;6216513;23;20331;-95
2022/10/29 08:15:29;;;;;;;14.98;4.55;;;;;;;21.02;100.00;100024.34;6188370;23;20004;-94
2022/10/29 08:17:55;;;;;;;16.67;5.43;;;;;;;20.70;100.00;100029.81;6188937;23;20444;-95
2022/10/29 08:20:24;;;;;;;14.25;4.25;;;;;;;20.81;100.00;100031.19;6189216;23;20005;-96
2022/10/29 08:22:49;;;;;;;23.23;5.80;;;;;;;21.11;100.00;100031.25;6218292;23;20008;-96
2022/10/29 08:25:15;;;;;;;26.90;4.97;;;;;;;20.59;100.00;100046.22;6188141;23;20012;-95
2022/10/29 08:27:41;;;;;;;15.50;3.92;;;;;;;21.10;100.00;100045.63;6188213;23;20001;-96
2022/10/29 08:30:09;;;;;;;18.90;5.65;;;;;;;21.06;100.00;100052.34;6187796;23;20062;-96
2022/10/29 08:32:35;;;;;;;10.90;3.88;;;;;;;21.42;100.00;100038.28;6213680;23;20001;-95
2022/10/29 08:35:01;;;;;;;19.23;4.15;;;;;;;21.54;100.00;100036.84;6189882;23;20007;-94
2022/10/29 08:37:26;;;;;;;9.60;3.40;;;;;;;21.94;100.00;100040.03;6188923;23;20005;-94
2022/10/29 08:39:52;;;;;;;17.83;3.85;;;;;;;21.83;100.00;100037.84;6189159;23;20032;-96
2022/10/29 08:42:44;;;;;;;18.40;3.90;;;;;;;21.76;100.00;100046.59;6188938;23;20001;-95
2022/10/29 08:45:50;;;;;;;25.13;4.28;;;;;;;21.68;100.00;100051.19;6160858;23;20031;-95
2022/10/29 08:48:33;;;;;;;9.82;3.10;;;;;;;22.07;100.00;100050.88;6070006;23;20090;-95
2022/10/29 08:51:21;;;;;;;9.57;3.30;;;;;;;22.06;100.00;100051.91;6177788;23;20001;-95
2022/10/29 08:53:52;;;;;;;16.92;3.63;;;;;;;21.56;100.00;100046.34;6189826;23;20028;-94
2022/10/29 08:56:26;;;;;;;11.32;3.50;;;;;;;21.78;100.00;100055.28;6189368;23;20366;-95
2022/10/29 08:59:10;;;;;;;23.13;4.28;;;;;;;21.63;100.00;100062.47;6188126;23;20007;-96
2022/10/29 09:01:36;;;;;;;22.35;4.30;;;;;;;21.94;100.00;100048.06;6186870;23;20004;-94
2022/10/29 09:04:04;;;;;;;24.48;5.43;;;;;;;21.84;100.00;100045.69;6188827;23;20005;-96
2022/10/29 09:06:29;;;;;;;16.77;4.00;;;;;;;22.18;100.00;100055.75;6188479;23;20060;-96
2022/10/29 09:09:07;;;;;;;12.85;3.70;;;;;;;21.56;100.00;100059.72;6188329;23;20001;-95
2022/10/29 09:12:01;;;;;;;19.73;4.03;;;;;;;22.06;100.00;100056.41;6213917;23;20130;-95
2022/10/29 09:14:35;;;;;;;15.13;3.75;;;;;;;22.17;100.00;100042.56;6190427;23;20323;-95
2022/10/29 09:17:29;;;;;;;14.75;3.63;;;;;;;22.17;100.00;100038.03;6214060;23;20020;-94
2022/10/29 09:20:13;;;;;;;19.50;5.07;;;;;;;22.47;100.00;100039.81;6192429;23;20005;-92
2022/10/29 09:23:08;;;;;;;17.10;4.35;;;;;;;21.93;100.00;100057.09;6190550;23;20275;-96
2022/10/29 09:26:02;;;;;;;16.88;3.75;;;;;;;21.83;100.00;100027.16;6190667;23;20005;-96
2022/10/29 09:29:04;;;;;;;11.38;3.53;;;;;;;22.50;100.00;100034.91;6213476;23;20009;-96
2022/10/29 09:32:11;;;;;;;23.35;3.80;;;;;;;22.51;100.00;100022.34;6189147;23;20009;-96
2022/10/29 09:34:39;;;;;;;18.23;4.20;;;;;;;22.44;100.00;100021.47;6099105;23;20381;-95
2022/10/29 09:37:32;;;;;;;16.42;3.67;;;;;;;22.67;100.00;100019.44;6123999;23;20080;-96
2022/10/29 09:40:03;;;;;;;20.13;3.58;;;;;;;22.45;100.00;100015.91;6100838;23;20006;-96
2022/10/29 09:42:38;;;;;;;14.43;2.95;;;;;;;23.06;100.00;100014.59;6099893;23;20026;-95
2022/10/29 09:45:08;;;;;;;14.63;3.58;;;;;;;22.51;100.00;100020.53;6110569;23;20104;-96
2022/10/29 09:47:50;;;;;;;15.95;3.60;;;;;;;22.66;100.00;100041.03;6188580;23;20009;-95
2022/10/29 09:50:45;;;;;;;17.02;3.90;;;;;;;22.34;100.00;100032.50;6188914;23;20028;-96
2022/10/29 09:53:11;;;;;;;15.27;4.05;;;;;;;22.38;100.00;100029.22;6213803;23;20015;-95
2022/10/29 09:55:41;;;;;;;13.82;3.53;;;;;;;22.40;100.00;100046.94;6188674;23;20339;-95
2022/10/29 09:58:14;;;;;;;15.23;3.05;;;;;;;21.79;100.00;100040.88;6189233;23;20027;-94
2022/10/29 10:00:40;;;;;;;16.50;3.35;;;;;;;21.96;100.00;100035.34;6213367;23;20457;-94
2022/10/29 10:03:09;;;;;;;15.48;3.42;;;;;;;22.23;100.00;100027.59;6188120;23;19996;-95
2022/10/29 10:05:53;;;;;;;15.95;3.65;;;;;;;22.35;100.00;100010.91;6188338;23;20058;-96
2022/10/29 10:08:19;;;;;;;16.30;3.58;;;;;;;22.42;100.00;100018.97;6188706;23;20501;-94
2022/10/29 10:10:57;;;;;;;11.57;3.13;;;;;;;22.52;100.00;100027.50;6189329;23;20001;-96
2022/10/29 10:13:26;;;;;;;23.60;4.00;;;;;;;22.90;100.00;100016.50;6189368;23;20032;-96
2022/10/29 10:15:54;;;;;;;16.20;3.70;;;;;;;23.51;98.38;100031.16;6189225;23;20040;-96
2022/10/29 10:18:41;;;;;;;12.07;2.47;;;;;;;23.27;98.66;100027.09;6213089;23;20001;-96
2022/10/29 10:21:10;;;;;;;16.92;3.65;;;;;;;23.64;96.61;100031.22;6188325;23;20012;-94
2022/10/29 10:23:44;;;;;;;17.50;3.53;;;;;;;23.95;94.71;100041.50;6189314;23;20013;-95
2022/10/29 10:26:42;;;;;;;13.93;3.13;;;;;;;23.59;95.98;100043.56;6215866;23;20009;-96
2022/10/29 10:29:13;;;;;;;17.70;3.03;;;;;;;25.46;88.78;100031.31;6188795;23;20132;-96
2022/10/29 10:31:42;;;;;;;;;;;;;;;26.77;79.49;100042.66;6215658;23;20009;-96
2022/10/29 10:34:20;;;;;;;14.50;3.65;;;;;;;27.00;76.17;100036.66;6191574;23;19908;-96
2022/10/29 10:37:06;;;;;;;16.20;2.92;;;;;;;26.43;77.00;100025.91;6215872;23;20019;-96
2022/10/29 10:39:45;;;;;;;11.57;2.92;;;;;;;27.01;74.50;100022.13;6192066;23;20039;-94
2022/10/29 10:42:38;;;;;;;14.15;2.72;;;;;;;29.00;63.81;100028.69;6190806;23;20004;-96
2022/10/29 10:45:24;;;;;;;15.93;2.90;;;;;;;29.03;64.40;100012.03;6190416;23;20004;-96
2022/10/29 10:47:57;;;;;;;12.50;2.72;;;;;;;30.53;59.30;100003.94;6189867;23;20062;-96
2022/10/29 10:50:33;;;;;;;12.43;3.55;;;;;;;30.40;56.04;100018.59;6214959;23;20498;-94
2022/10/29 10:53:21;;;;;;;16.35;3.05;;;;;;;28.72;61.32;100015.88;6190175;23;19997;-96
2022/10/29 10:55:58;;;;;;;11.27;2.63;;;;;;;29.90;57.76;100023.88;6190830;23;20005;-95
2022/10/29 10:58:35;;;;;;;11.80;2.60;;;;;;;28.34;62.02;100036.78;6214943;23;20390;-95
2022/10/29 11:01:10;;;;;;;13.10;2.75;;;;;;;30.34;56.84;100027.72;6189693;23;20087;-96
2022/10/29 11:03:44;;;;;;;13.43;2.63;;;;;;;28.33;60.30;100040.53;6192306;23;20012;-96
2022/10/29 11:06:19;;;;;;;8.95;2.38;;;;;;;27.54;64.06;100047.75;6189605;23;20009;-96
2022/10/29 11:09:09;;;;;;;16.85;2.53;;;;;;;27.58;65.83;100024.69;6189585;23;20023;-94
2022/10/29 11:11:56;;;;;;;18.00;2.90;;;;;;;26.39;70.45;100024.69;6187640;23;20084;-92
2022/10/29 11:14:51;;;;;;;14.02;3.40;;;;;;;25.74;74.56;100022.94;6189541;23;20004;-93
2022/10/29 11:17:44;;;;;;;13.77;3.83;;;;;;;25.78;74.28;100013.38;6186679;23;20012;-93
2022/10/29 11:20:29;;;;;;;10.85;2.20;;;;;;;26.75;71.67;100018.63;6189102;23;20008;-92
2022/10/29 11:23:14;;;;;;;9.98;2.33;;;;;;;29.56;59.55;100000.22;6213989;23;20005;-95
2022/10/29 11:25:47;;;;;;;14.85;2.70;;;;;;;29.67;57.28;99988.53;6215703;23;20004;-93
2022/10/29 11:28:30;;;;;;;12.98;2.22;;;;;;;27.94;60.83;99994.16;6214923;23;20183;-93
2022/10/29 11:31:06;;;;;;;16.20;2.60;;;;;;;30.44;56.43;99987.25;6188810;23;20088;-92
2022/10/29 11:33:47;;;;;;;10.13;1.90;;;;;;;32.13;50.05;99983.28;6188602;23;20043;-93
2022/10/29 11:36:21;;;;;;;15.37;2.87;;;;;;;29.53;55.83;99983.63;6189903;23;20538;-92